Esmont, VA (22937)

11:10 AM EST on December 06, 2016 (GMT -0500)
Along Langhorne Rd | | Change Station

Elev 367 ft 37.80 °N, 78.54 °W | Updated 1 minute ago

Light Rain
Light Rain Mist
39.0 °F
Feels Like 39 °F
N
2.9
Wind Variable Wind from NNE
Gusts 6.0 mph

Today
High -- | Low -- °F
--% Chance of Precip.
Yesterday
High -- | Low -- °F
Precip. -- in
Pressure 30.02 in
Visibility 2.5 miles
Clouds Few 1400 ft
Overcast 4700 ft
Windchill 39 °F
Dew Point 38 °F
Humidity 95%
Rainfall 0.31 in
Snow Depth Not available.
7:16 AM 4:55 PM
Waxing Crescent, 43% visible
METAR KCHO 061553Z 05007KT 2 1/2SM -RA BR FEW014 OVC047 04/02 A3002 RMK AO2 SLP166 P0004 T00440022
Pressure 30.02 in
Visibility 2.5 miles
Clouds Few 1400 ft
Overcast 4700 ft
Windchill 39 °F
Dew Point 38 °F
Humidity 95%
Rainfall 0.31 in
Snow Depth Not available.
7:16 AM 4:55 PM
Waxing Crescent, 43% visible
METAR KCHO 061553Z 05007KT 2 1/2SM -RA BR FEW014 OVC047 04/02 A3002 RMK AO2 SLP166 P0004 T00440022

10-Day Weather Forecast

Almanac

Astronomy

Dec. 06, 2016 Rise Set
Actual Time
Civil Twilight
Nautical Twilight
Astronomical Twilight
Moon
Length of Visible Light
Length of Day
Tomorrow will be .
, % of the Moon is Illuminated

Today's Extremes

State Highs State Lows

Community

WunderPhotos

Upload Photos

1,955,965 photos uploaded!

WunderBlog® & News

Nearby

Air Quality

  Air Quality AQ Index Pollutant
Not available.

Snow Depth

Station Depth Elevation

Earthquake Activity

City Distance Mag. Time & Date
Minimum magnitude displayed is 2.5.

Coastal Water Temperatures

Place Temperature

Stations

Nearby Weather Stations

Station Location Temp. Windchill Dew Point Humidity Wind Precip. Elev Updated Type
                   

Watches & Warnings

There are currently no watches in effect.